Piapot, Canada
Current Conditions -  °F | °C
As of 10:00 PM on Tuesday 25 Nov 2014 (Local Time) from CYYN Reporting Station
Light Snow Light Snow  
Wind Chill:   Ceiling: 3300
Heat Index: 12°   Visibility: 9mi
Dew Point: 10°   Wind: 6mph
Humidity: 92%   Direction: 90°E
Pressure: 30.13"   Gusts: NA
Location:  49.98°N, 109.12°W
Report Text: CYYN 260400Z AUTO 09005KT 9SM -SN OVC033 M11/M12 A3013 RMK SLP254
Loading
Personal Weather Stations






























Interactive Weather Map New forecast layout! Learn more

10-Day Weather Forecast

Advertisements
Track Severe Weather on mobile